Time;durP1;ratioP1;P1;durP2;ratioP2;P2;SDS_P1;SDS_P2;PMS_P1;PMS_P2;Temp;Humidity;BMP_temperature;BMP_pressure;BME280_temperature;BME280_humidity;BME280_pressure;Samples;Min_cycle;Max_cycle;Signal;HPM_P1;HPM_P2
2022/05/31 00:00:13;;;;;;;4.18;3.40;;;;;;;9.98;65.41;101302.91;5045706;28;20439;-76
2022/05/31 00:02:39;;;;;;;6.05;3.50;;;;;;;9.98;65.51;101300.31;5049301;28;20062;-76
2022/05/31 00:05:05;;;;;;;5.15;3.20;;;;;;;9.98;65.57;101302.03;5049595;28;20380;-76
2022/05/31 00:07:30;;;;;;;5.82;3.40;;;;;;;9.96;64.99;101296.88;5044485;28;20087;-75
2022/05/31 00:09:55;;;;;;;7.72;3.47;;;;;;;9.98;63.73;101287.31;5044380;28;20028;-75
2022/05/31 00:12:20;;;;;;;4.78;2.95;;;;;;;9.99;63.68;101289.00;5051090;28;20448;-76
2022/05/31 00:14:46;;;;;;;5.05;2.95;;;;;;;10.01;63.76;101281.19;5048511;28;20033;-76
2022/05/31 00:17:11;;;;;;;4.35;3.10;;;;;;;10.04;63.36;101286.34;5044571;28;20033;-76
2022/05/31 00:19:37;;;;;;;6.47;3.17;;;;;;;10.04;63.37;101286.34;5047444;28;20057;-76
2022/05/31 00:22:15;;;;;;;5.30;3.03;;;;;;;10.05;63.06;101285.47;5044011;28;20032;-76
2022/05/31 00:24:41;;;;;;;5.22;3.03;;;;;;;10.06;63.46;101281.97;5046735;28;20438;-76
2022/05/31 00:27:13;;;;;;;5.38;3.33;;;;;;;10.02;64.14;101278.56;5045953;28;20040;-76
2022/05/31 00:29:38;;;;;;;5.32;3.00;;;;;;;9.98;64.12;101279.50;5050397;28;20032;-76
2022/05/31 00:32:07;;;;;;;4.25;2.95;;;;;;;9.94;65.11;101285.63;5049473;28;20464;-76
2022/05/31 00:34:35;;;;;;;6.50;3.15;;;;;;;9.91;64.79;101284.81;5049456;28;20025;-76
2022/05/31 00:37:01;;;;;;;5.88;3.00;;;;;;;9.91;64.77;101284.81;5045279;28;20016;-76
2022/05/31 00:39:26;;;;;;;3.65;2.75;;;;;;;9.87;65.09;101282.28;5047437;28;20039;-76
2022/05/31 00:42:05;;;;;;;4.65;2.90;;;;;;;9.84;64.68;101277.13;5044872;28;20037;-76
2022/05/31 00:44:32;;;;;;;5.28;3.30;;;;;;;9.82;64.83;101283.22;5046661;28;20029;-76
2022/05/31 00:47:07;;;;;;;4.15;3.03;;;;;;;9.78;65.20;101289.34;5044952;28;20025;-76
2022/05/31 00:49:38;;;;;;;4.53;3.10;;;;;;;9.73;65.29;101292.03;5049533;28;20387;-76
2022/05/31 00:52:10;;;;;;;5.72;3.50;;;;;;;9.72;64.44;101285.09;5045292;28;20071;-76
2022/05/31 00:54:40;;;;;;;4.95;3.22;;;;;;;9.70;64.93;101282.53;5047583;28;20028;-75
2022/05/31 00:57:05;;;;;;;4.50;3.03;;;;;;;9.69;65.51;101285.16;5045264;28;20020;-75
2022/05/31 00:59:37;;;;;;;7.05;3.42;;;;;;;9.68;65.29;101279.06;5044178;28;20078;-75
2022/05/31 01:02:04;;;;;;;6.50;3.15;;;;;;;9.65;65.83;101283.47;5042320;28;20032;-76
2022/05/31 01:04:37;;;;;;;4.15;2.95;;;;;;;9.61;65.32;101284.38;5043602;28;20048;-76
2022/05/31 01:07:02;;;;;;;5.63;3.17;;;;;;;9.57;65.58;101287.03;5043386;28;20052;-76
2022/05/31 01:09:29;;;;;;;6.10;3.70;;;;;;;9.52;66.02;101277.59;5049742;28;20498;-76
2022/05/31 01:11:57;;;;;;;5.13;3.47;;;;;;;9.49;65.27;101282.81;5049678;28;20020;-76
2022/05/31 01:14:22;;;;;;;4.50;3.53;;;;;;;9.44;65.92;101282.91;5047922;28;20119;-76
2022/05/31 01:16:55;;;;;;;4.97;3.53;;;;;;;9.42;65.48;101276.84;5044957;28;20095;-76
2022/05/31 01:22:04;;;;;;;4.10;3.15;;;;;;;9.29;66.78;101286.56;5040648;28;20120;-75
2022/05/31 01:24:34;;;;;;;4.25;3.28;;;;;;;9.26;66.34;101286.59;5044984;28;20164;-76
2022/05/31 01:27:12;;;;;;;5.18;3.47;;;;;;;9.21;66.35;101271.09;5045535;28;20040;-76
2022/05/31 01:29:39;;;;;;;5.15;3.42;;;;;;;9.18;66.28;101273.72;5047584;28;22416;-76
2022/05/31 01:32:08;;;;;;;4.57;3.22;;;;;;;9.16;66.41;101274.59;5046983;28;20028;-76
2022/05/31 01:34:57;;;;;;;5.70;3.50;;;;;;;9.10;67.41;101271.25;5045249;28;20119;-76
2022/05/31 01:37:33;;;;;;;5.00;3.25;;;;;;;9.08;67.40;101272.13;5043536;28;20094;-76
2022/05/31 01:40:03;;;;;;;5.25;3.40;;;;;;;9.02;67.92;101262.66;5055535;28;20082;-76
2022/05/31 01:42:40;;;;;;;5.72;3.70;;;;;;;9.02;67.04;101267.88;5041926;28;20404;-76
2022/05/31 01:45:09;;;;;;;5.63;3.67;;;;;;;8.99;67.05;101262.69;5046735;28;20099;-76
2022/05/31 01:47:35;;;;;;;4.70;3.70;;;;;;;8.94;68.02;101261.94;5048467;28;20395;-76
2022/05/31 01:50:01;;;;;;;5.00;3.85;;;;;;;8.89;68.48;101259.38;5046902;28;20029;-76
2022/05/31 01:52:27;;;;;;;5.13;3.90;;;;;;;8.85;68.50;101255.09;5047778;28;20039;-75
2022/05/31 01:54:53;;;;;;;6.18;3.88;;;;;;;8.83;68.22;101255.97;5044413;28;20060;-76
2022/05/31 01:57:21;;;;;;;5.50;3.67;;;;;;;8.83;68.70;101262.03;5044984;28;20476;-76
2022/05/31 01:59:50;;;;;;;7.38;4.13;;;;;;;8.82;68.68;101262.91;5043917;28;20033;-76
2022/05/31 02:02:17;;;;;;;7.90;3.92;;;;;;;8.80;68.81;101256.88;5044966;28;20053;-76
2022/05/31 02:04:43;;;;;;;6.25;4.63;;;;;;;8.79;68.61;101266.44;5044942;28;20481;-76
2022/05/31 02:07:15;;;;;;;6.50;3.92;;;;;;;8.79;68.26;101262.94;5046780;28;20017;-76
2022/05/31 02:09:42;;;;;;;8.00;4.20;;;;;;;8.78;69.19;101262.09;5046200;28;20052;-75
2022/05/31 02:12:10;;;;;;;7.38;4.22;;;;;;;8.77;69.02;101251.72;5046069;28;20017;-75
2022/05/31 02:14:36;;;;;;;6.63;4.38;;;;;;;8.75;68.56;101264.72;5042138;28;20051;-75
2022/05/31 02:17:01;;;;;;;9.13;4.65;;;;;;;8.72;68.69;101261.28;5043591;28;20029;-76
2022/05/31 02:19:28;;;;;;;11.38;5.32;;;;;;;8.72;68.58;101263.88;5045405;28;20017;-76
2022/05/31 02:21:56;;;;;;;8.82;5.45;;;;;;;8.66;69.31;101254.44;5040223;28;20074;-76
2022/05/31 02:24:23;;;;;;;8.18;4.90;;;;;;;8.67;69.30;101256.16;5046333;28;20083;-76
2022/05/31 02:26:48;;;;;;;9.20;4.70;;;;;;;8.66;69.29;101267.41;5045220;28;20032;-76
2022/05/31 02:29:17;;;;;;;6.43;4.47;;;;;;;8.64;69.45;101251.88;5049154;28;20422;-76
2022/05/31 02:31:43;;;;;;;7.25;4.47;;;;;;;8.64;69.64;101257.06;5045206;28;20027;-76
2022/05/31 02:34:09;;;;;;;7.22;4.22;;;;;;;8.64;69.77;101261.38;5048383;28;20111;-75
2022/05/31 02:36:35;;;;;;;6.78;4.53;;;;;;;8.64;69.84;101262.25;5045906;28;20033;-75
2022/05/31 02:39:00;;;;;;;8.27;4.53;;;;;;;8.64;69.96;101251.00;5049002;28;20028;-76
2022/05/31 02:41:26;;;;;;;7.47;4.43;;;;;;;8.64;69.84;101249.28;5049508;28;20107;-76
2022/05/31 02:43:52;;;;;;;9.30;5.10;;;;;;;8.66;69.13;101246.66;5048932;28;20111;-76
2022/05/31 02:46:17;;;;;;;10.55;5.32;;;;;;;8.69;68.97;101238.00;5049196;28;20024;-76
2022/05/31 02:48:43;;;;;;;9.52;5.32;;;;;;;8.72;69.38;101235.34;5050610;28;20110;-76
2022/05/31 02:51:08;;;;;;;9.48;5.35;;;;;;;8.74;68.66;101238.78;5049368;28;20029;-76
2022/05/31 02:53:33;;;;;;;8.15;4.85;;;;;;;8.77;68.96;101246.53;5048718;28;20047;-76
2022/05/31 02:55:59;;;;;;;9.32;4.93;;;;;;;8.78;68.82;101240.47;5048263;28;20025;-76
2022/05/31 02:58:25;;;;;;;8.40;4.78;;;;;;;8.79;69.41;101240.47;5045247;28;20453;-76
2022/05/31 03:00:51;;;;;;;8.73;4.72;;;;;;;8.79;69.85;101234.41;5043673;28;20033;-76
2022/05/31 03:03:16;;;;;;;6.63;4.35;;;;;;;8.80;69.63;101243.91;5047219;28;20037;-76
2022/05/31 03:05:41;;;;;;;5.85;4.13;;;;;;;8.79;70.47;101239.59;5046442;28;20502;-75
2022/05/31 03:08:07;;;;;;;8.15;4.97;;;;;;;8.81;70.46;101246.47;5049234;28;20113;-75
2022/05/31 03:10:36;;;;;;;7.78;5.15;;;;;;;8.82;70.40;101239.56;5050070;28;20128;-75
2022/05/31 03:13:02;;;;;;;8.90;5.65;;;;;;;8.84;69.95;101243.00;5047391;28;20338;-76
2022/05/31 03:15:33;;;;;;;17.08;10.20;;;;;;;8.86;69.18;101240.38;5047939;28;20033;-76
2022/05/31 03:18:03;;;;;;;27.20;13.88;;;;;;;8.89;68.53;101241.19;5046873;28;20028;-75
2022/05/31 03:20:39;;;;;;;26.58;13.82;;;;;;;8.91;68.78;101236.84;5043276;28;20017;-75
2022/05/31 03:23:14;;;;;;;30.58;15.75;;;;;;;8.93;68.43;101234.25;5045471;28;20024;-76
2022/05/31 03:25:42;;;;;;;32.17;17.98;;;;;;;8.96;68.55;101235.06;5047098;28;20060;-76
2022/05/31 03:28:09;;;;;;;36.60;19.33;;;;;;;8.99;68.73;101234.16;5048485;28;20017;-76
2022/05/31 03:30:36;;;;;;;37.63;20.48;;;;;;;9.01;68.22;101232.41;5046684;28;20423;-76
2022/05/31 03:33:02;;;;;;;43.55;22.13;;;;;;;9.03;68.17;101228.06;5047943;28;20028;-76
2022/05/31 03:35:27;;;;;;;41.17;22.73;;;;;;;9.06;68.38;101224.56;5047702;28;20365;-75
2022/05/31 03:37:53;;;;;;;43.38;22.77;;;;;;;9.08;68.12;101225.41;5049938;28;20017;-76
2022/05/31 03:43:04;;;;;;;40.85;22.25;;;;;;;9.12;68.28;101227.06;5047011;28;20079;-75
2022/05/31 03:45:38;;;;;;;42.17;22.60;;;;;;;9.13;68.06;101228.78;5050166;28;20120;-75
2022/05/31 03:48:05;;;;;;;40.38;21.98;;;;;;;9.14;68.61;101230.50;5046232;28;20068;-76
2022/05/31 03:50:31;;;;;;;34.05;19.40;;;;;;;9.16;68.10;101227.88;5047702;28;20392;-75
2022/05/31 03:52:56;;;;;;;31.88;18.60;;;;;;;9.16;68.66;101231.34;5043316;28;20036;-75
2022/05/31 03:55:22;;;;;;;27.88;16.48;;;;;;;9.17;68.59;101225.28;5047577;28;20074;-75
2022/05/31 03:57:48;;;;;;;21.40;13.27;;;;;;;9.19;68.48;101230.44;5045715;28;20354;-76
2022/05/31 04:00:15;;;;;;;18.92;11.80;;;;;;;9.21;68.46;101229.56;5053057;28;20017;-76
2022/05/31 04:02:40;;;;;;;19.85;12.02;;;;;;;9.21;68.62;101228.69;5045063;28;20116;-76
2022/05/31 04:05:06;;;;;;;18.20;11.20;;;;;;;9.24;68.81;101234.69;5049946;28;20101;-76
2022/05/31 04:07:32;;;;;;;16.80;10.68;;;;;;;9.25;68.55;101231.22;5048840;28;20492;-76
2022/05/31 04:09:57;;;;;;;15.45;10.02;;;;;;;9.27;68.83;101231.22;5046059;28;20059;-76
2022/05/31 04:12:23;;;;;;;14.15;9.23;;;;;;;9.28;68.79;101232.94;5047263;28;20029;-76
2022/05/31 04:14:48;;;;;;;17.15;9.93;;;;;;;9.31;69.49;101229.41;5047050;28;20032;-75
2022/05/31 04:17:13;;;;;;;14.95;9.98;;;;;;;9.29;69.81;101231.19;5043503;28;20036;-76
2022/05/31 04:19:39;;;;;;;14.98;9.77;;;;;;;9.27;69.82;101226.88;5044361;28;20036;-76
2022/05/31 04:22:04;;;;;;;14.38;8.55;;;;;;;9.27;69.46;101229.47;5049277;28;20083;-76
2022/05/31 04:24:29;;;;;;;12.45;7.85;;;;;;;9.30;69.16;101227.69;5047978;28;20052;-75
2022/05/31 04:26:54;;;;;;;14.18;8.70;;;;;;;9.29;70.17;101223.38;5045820;28;20033;-76
2022/05/31 04:29:20;;;;;;;11.38;8.23;;;;;;;9.30;69.86;101222.50;5045400;28;20037;-75
2022/05/31 04:31:45;;;;;;;11.90;8.27;;;;;;;9.30;70.47;101225.97;5040234;28;20554;-76
2022/05/31 04:34:11;;;;;;;12.77;7.57;;;;;;;9.30;70.17;101223.38;5048881;28;20376;-76
2022/05/31 04:36:36;;;;;;;10.27;6.97;;;;;;;9.34;69.86;101229.38;5047652;28;20033;-75
2022/05/31 04:39:03;;;;;;;10.82;6.57;;;;;;;9.37;69.51;101232.78;5047846;28;20029;-76
2022/05/31 04:41:30;;;;;;;9.27;6.38;;;;;;;9.39;69.76;101231.03;5048521;28;20032;-76
2022/05/31 04:43:58;;;;;;;10.15;6.82;;;;;;;9.43;69.95;101241.38;5047921;28;20035;-76
2022/05/31 04:46:25;;;;;;;9.00;6.18;;;;;;;9.45;69.68;101235.28;5045780;28;20040;-76
2022/05/31 04:48:56;;;;;;;8.43;6.10;;;;;;;9.47;69.67;101238.69;5040707;28;20036;-76
2022/05/31 04:51:21;;;;;;;8.55;5.70;;;;;;;9.49;69.63;101236.06;5047938;28;20025;-76
2022/05/31 04:53:46;;;;;;;11.57;6.35;;;;;;;9.50;69.71;101236.06;5042379;28;20032;-76
2022/05/31 04:56:17;;;;;;;8.45;6.43;;;;;;;9.52;70.41;101239.50;5042183;28;20033;-76
2022/05/31 04:58:42;;;;;;;8.37;6.17;;;;;;;9.57;69.68;101235.06;5047368;28;20148;-75
2022/05/31 05:01:07;;;;;;;8.43;6.18;;;;;;;9.59;69.42;101223.81;5045253;28;20111;-75
2022/05/31 05:03:34;;;;;;;8.68;6.45;;;;;;;9.62;69.17;101223.75;5050120;28;20082;-75
2022/05/31 05:06:06;;;;;;;8.98;6.78;;;;;;;9.66;69.18;101228.03;5051383;28;20108;-75
2022/05/31 05:08:32;;;;;;;10.27;6.47;;;;;;;9.67;68.96;101217.59;5050669;28;20504;-76
2022/05/31 05:11:01;;;;;;;9.18;6.93;;;;;;;9.72;69.00;101227.94;5048509;28;20546;-75
2022/05/31 05:13:28;;;;;;;13.90;7.25;;;;;;;9.75;69.09;101222.69;5050114;28;20439;-76
2022/05/31 05:15:55;;;;;;;10.50;6.85;;;;;;;9.78;69.05;101227.00;5048342;28;20476;-76
2022/05/31 05:18:21;;;;;;;9.68;6.97;;;;;;;9.80;68.78;101220.88;5046653;28;20021;-76
2022/05/31 05:20:46;;;;;;;12.63;7.40;;;;;;;9.84;69.47;101217.34;5048855;28;20576;-76
2022/05/31 05:23:11;;;;;;;11.07;7.18;;;;;;;9.87;69.45;101214.72;5048814;28;20116;-75
2022/05/31 05:25:37;;;;;;;9.07;7.28;;;;;;;9.92;69.64;101216.34;5051720;28;20392;-76
2022/05/31 05:30:38;;;;;;;8.88;6.30;;;;;;;9.95;69.55;101218.91;5049389;28;20384;-75
2022/05/31 05:30:48;;;;;;;9.32;6.53;;;;;;;9.97;69.31;101211.94;5047957;28;20154;-75
2022/05/31 05:33:13;;;;;;;10.25;7.00;;;;;;;9.99;68.87;101215.38;5050400;28;20463;-76
2022/05/31 05:35:39;;;;;;;10.93;7.22;;;;;;;10.01;69.41;101218.81;5051773;28;20082;-76
2022/05/31 05:38:06;;;;;;;10.30;7.45;;;;;;;10.02;69.08;101221.38;5047337;28;20449;-76
2022/05/31 05:40:31;;;;;;;10.75;7.05;;;;;;;10.05;69.13;101223.06;5048981;28;20045;-75
2022/05/31 05:42:57;;;;;;;10.95;8.15;;;;;;;10.07;69.04;101217.84;5049011;28;20071;-76
2022/05/31 05:45:23;;;;;;;10.90;7.43;;;;;;;10.09;68.81;101216.91;5048974;28;20078;-76
2022/05/31 05:47:49;;;;;;;12.23;7.60;;;;;;;10.11;68.76;101217.75;5045887;28;20025;-75
2022/05/31 05:50:14;;;;;;;11.48;7.75;;;;;;;10.14;69.05;101219.44;5050075;28;20028;-76
2022/05/31 05:52:40;;;;;;;10.70;7.90;;;;;;;10.16;69.28;101217.69;5047232;28;20562;-76
2022/05/31 05:55:06;;;;;;;10.93;8.23;;;;;;;10.19;69.58;101217.59;5050341;28;20117;-76
2022/05/31 05:57:32;;;;;;;10.60;7.72;;;;;;;10.22;69.63;101211.50;5049612;28;20025;-76
2022/05/31 05:59:58;;;;;;;11.73;7.40;;;;;;;10.23;69.18;101218.44;5050230;28;20392;-76
2022/05/31 06:02:31;;;;;;;10.68;7.68;;;;;;;10.24;69.08;101221.00;5046011;28;20033;-75
2022/05/31 06:05:07;;;;;;;12.60;7.72;;;;;;;10.25;69.08;101211.44;5046069;28;20025;-76
2022/05/31 06:07:38;;;;;;;12.43;7.07;;;;;;;10.27;69.20;101214.88;5051856;28;20031;-76
2022/05/31 06:10:20;;;;;;;9.50;7.27;;;;;;;10.30;68.98;101214.81;5053729;28;20028;-76
2022/05/31 06:12:50;;;;;;;;;;;;;;;10.36;67.93;101214.72;5052405;28;20064;-76
2022/05/31 06:15:21;;;;;;;8.82;6.78;;;;;;;10.35;69.57;101207.78;5055024;28;19940;-76
2022/05/31 06:17:50;;;;;;;8.98;6.80;;;;;;;10.37;70.04;101208.63;5049129;28;20013;-75
2022/05/31 06:20:16;;;;;;;10.90;7.15;;;;;;;10.39;69.96;101217.28;5052902;28;20025;-76
2022/05/31 06:22:42;;;;;;;11.07;6.72;;;;;;;10.41;70.03;101212.03;5050643;28;20070;-76
2022/05/31 06:25:10;;;;;;;9.57;6.72;;;;;;;10.42;69.60;101206.81;5053213;28;20121;-76
2022/05/31 06:27:36;;;;;;;9.20;6.90;;;;;;;10.46;70.08;101210.22;5053696;28;20020;-75
2022/05/31 06:30:01;;;;;;;10.27;6.90;;;;;;;10.48;70.00;101209.28;5053527;28;20365;-76
2022/05/31 06:32:26;;;;;;;11.77;7.68;;;;;;;10.52;70.22;101214.44;5051559;28;20039;-76
2022/05/31 06:34:51;;;;;;;12.15;7.75;;;;;;;10.57;70.34;101217.81;5054666;28;20032;-76
2022/05/31 06:37:17;;;;;;;9.43;7.13;;;;;;;10.62;69.91;101219.44;5052440;28;20025;-76
2022/05/31 06:39:45;;;;;;;12.95;7.40;;;;;;;10.67;70.16;101214.13;5053073;28;20025;-76
2022/05/31 06:42:11;;;;;;;10.93;7.70;;;;;;;10.72;70.01;101219.25;5052989;28;20139;-76
2022/05/31 06:44:41;;;;;;;9.65;6.97;;;;;;;10.75;69.70;101217.47;5052459;28;20122;-76
2022/05/31 06:47:07;;;;;;;11.43;7.50;;;;;;;10.80;70.68;101219.09;5052817;28;20024;-76
2022/05/31 06:49:34;;;;;;;11.45;7.47;;;;;;;10.84;70.48;101218.13;5054224;28;20110;-76
2022/05/31 06:57:37;;;;;;;9.40;7.03;;;;;;;10.98;69.93;101212.66;5046199;28;20380;-75
2022/05/31 07:00:08;;;;;;;10.82;6.78;;;;;;;11.02;70.61;101215.16;5052533;28;20033;-76
2022/05/31 07:02:34;;;;;;;10.25;6.95;;;;;;;11.08;70.86;101212.44;5054909;28;20491;-76
2022/05/31 07:05:00;;;;;;;9.43;6.53;;;;;;;11.13;68.88;101219.25;5052081;28;20036;-76
2022/05/31 07:07:25;;;;;;;8.40;6.13;;;;;;;11.15;68.94;101207.94;5053544;28;20033;-76
2022/05/31 07:09:51;;;;;;;9.85;6.18;;;;;;;11.20;67.65;101207.81;5052770;28;20107;-76
2022/05/31 07:12:17;;;;;;;8.68;5.07;;;;;;;11.19;66.88;101203.50;5051370;28;20036;-76
2022/05/31 07:14:42;;;;;;;7.75;5.53;;;;;;;11.23;66.99;101207.75;5049065;28;20409;-76
2022/05/31 07:17:09;;;;;;;10.32;5.72;;;;;;;11.27;67.66;101203.34;5050737;28;20036;-75
2022/05/31 07:19:35;;;;;;;10.05;5.30;;;;;;;11.32;67.28;101202.31;5048773;28;20079;-76
2022/05/31 07:22:00;;;;;;;7.10;5.30;;;;;;;11.39;67.95;101203.03;5051814;28;20079;-75
2022/05/31 07:24:27;;;;;;;7.03;5.10;;;;;;;11.47;67.66;101197.66;5053780;28;20045;-75
2022/05/31 07:26:53;;;;;;;9.40;5.55;;;;;;;11.55;66.97;101198.34;5053524;28;20040;-75
2022/05/31 07:29:19;;;;;;;10.05;5.40;;;;;;;11.66;66.85;101198.91;5056756;28;20028;-75
2022/05/31 07:31:44;;;;;;;7.60;5.50;;;;;;;11.80;66.36;101198.59;5047477;28;20028;-75
2022/05/31 07:34:14;;;;;;;9.02;5.18;;;;;;;11.96;66.07;101196.44;5052488;28;20033;-76
2022/05/31 07:36:39;;;;;;;8.35;5.50;;;;;;;12.10;64.88;101205.69;5053760;28;20040;-75
2022/05/31 07:39:08;;;;;;;7.38;5.28;;;;;;;12.24;64.47;101211.41;5053924;28;20032;-76
2022/05/31 07:41:34;;;;;;;10.13;5.20;;;;;;;12.34;64.29;101204.19;5053451;28;20033;-76
2022/05/31 07:44:00;;;;;;;7.47;5.18;;;;;;;12.46;64.15;101197.78;5051128;28;20099;-76
2022/05/31 07:46:25;;;;;;;9.68;5.18;;;;;;;12.55;64.83;101201.88;5049790;28;20203;-75
2022/05/31 07:48:51;;;;;;;6.13;4.75;;;;;;;12.64;64.79;101195.53;5043162;28;20401;-76
2022/05/31 07:51:16;;;;;;;6.38;4.70;;;;;;;12.71;64.29;101192.72;5049169;28;20029;-76
2022/05/31 07:53:42;;;;;;;7.00;4.72;;;;;;;12.79;62.36;101199.44;5046595;28;20043;-76
2022/05/31 07:56:08;;;;;;;6.18;3.97;;;;;;;12.81;61.91;101206.31;5051369;28;20028;-76
2022/05/31 07:58:35;;;;;;;6.65;4.30;;;;;;;12.81;61.20;101195.88;5053456;28;20025;-75
2022/05/31 08:01:02;;;;;;;5.22;3.92;;;;;;;12.82;62.45;101192.38;5050134;28;20103;-76
2022/05/31 08:03:29;;;;;;;8.43;3.97;;;;;;;12.90;61.83;101197.34;5042414;28;20056;-75
2022/05/31 08:05:55;;;;;;;6.05;3.78;;;;;;;12.95;60.83;101192.03;5051576;28;20025;-76
2022/05/31 08:08:20;;;;;;;5.20;3.50;;;;;;;13.03;60.50;101197.84;5052725;28;20353;-76
2022/05/31 08:10:46;;;;;;;4.90;3.28;;;;;;;13.11;61.10;101195.00;5053314;28;20061;-75
2022/05/31 08:13:11;;;;;;;5.15;3.40;;;;;;;13.17;59.99;101194.84;5051166;28;20052;-76
2022/05/31 08:15:36;;;;;;;5.88;3.33;;;;;;;13.26;61.05;101191.06;5047635;28;20029;-76
2022/05/31 08:18:02;;;;;;;4.45;3.45;;;;;;;13.36;58.83;101195.09;5047500;28;20021;-75
2022/05/31 08:20:27;;;;;;;4.80;3.30;;;;;;;13.43;59.13;101190.56;5051786;28;20033;-75
2022/05/31 08:22:53;;;;;;;5.90;3.65;;;;;;;13.49;59.20;101191.22;5052840;28;20036;-76
2022/05/31 08:25:19;;;;;;;5.88;3.60;;;;;;;13.57;59.10;101184.91;5050799;28;20090;-75
2022/05/31 08:27:45;;;;;;;5.70;3.60;;;;;;;13.64;58.25;101189.88;5053073;28;20036;-76
2022/05/31 08:30:11;;;;;;;6.95;3.90;;;;;;;13.70;59.27;101180.13;5055427;28;20188;-75
2022/05/31 08:32:37;;;;;;;5.35;3.40;;;;;;;13.78;59.52;101180.69;5052682;28;20127;-76
2022/05/31 08:35:04;;;;;;;5.88;3.80;;;;;;;13.87;59.84;101179.53;5051604;28;20039;-76
2022/05/31 08:37:30;;;;;;;6.32;4.03;;;;;;;13.94;59.10;101175.81;5052268;28;20028;-76
2022/05/31 08:39:56;;;;;;;8.73;3.50;;;;;;;14.01;59.02;101164.22;5051092;28;20021;-76
2022/05/31 08:42:49;;;;;;;10.02;6.00;;;;;;;14.09;58.81;101167.44;5051247;28;20033;-75
2022/05/31 08:45:40;;;;;;;6.25;4.10;;;;;;;14.19;59.29;101174.94;5049099;28;20586;-76
2022/05/31 08:48:15;;;;;;;6.20;3.67;;;;;;;14.23;57.61;101168.69;5050469;28;20128;-76
2022/05/31 08:53:45;;;;;;;5.07;3.85;;;;;;;14.37;58.02;101158.56;5056542;28;20051;-76
2022/05/31 08:59:09;;;;;;;4.75;2.80;;;;;;;14.50;55.72;101158.97;5046065;28;20117;-76
2022/05/31 09:01:52;;;;;;;4.88;2.97;;;;;;;14.58;56.14;101163.94;5040188;28;20044;-76
2022/05/31 09:04:35;;;;;;;5.60;3.22;;;;;;;14.65;55.60;101168.03;5045391;28;20029;-76
2022/05/31 09:07:07;;;;;;;4.20;2.95;;;;;;;14.74;55.49;101171.25;5046974;28;20495;-76
2022/05/31 09:09:39;;;;;;;4.15;2.67;;;;;;;14.76;54.23;101174.66;5047240;28;20442;-76
2022/05/31 09:12:45;;;;;;;5.38;2.88;;;;;;;14.70;56.48;101184.44;5047042;28;20049;-76
2022/05/31 09:15:18;;;;;;;7.00;3.88;;;;;;;14.64;55.26;101182.03;5040590;28;20107;-76
2022/05/31 09:17:59;;;;;;;4.60;3.00;;;;;;;14.65;55.68;101178.53;5051253;28;20021;-76
2022/05/31 09:20:54;;;;;;;4.90;3.08;;;;;;;14.68;55.88;101178.44;5049864;28;20135;-75
2022/05/31 09:23:29;;;;;;;4.82;3.05;;;;;;;14.67;56.04;101175.81;5049404;28;20032;-76
2022/05/31 09:26:08;;;;;;;4.30;2.80;;;;;;;14.67;56.70;101171.47;5047910;28;20025;-76
2022/05/31 09:28:38;;;;;;;5.78;3.35;;;;;;;14.65;55.46;101167.16;5050183;28;20511;-75
2022/05/31 09:31:18;;;;;;;5.20;3.13;;;;;;;14.68;56.85;101174.94;5046631;28;20119;-76
2022/05/31 09:34:01;;;;;;;5.45;3.08;;;;;;;14.62;55.90;101172.53;5048095;28;20037;-75
2022/05/31 09:36:56;;;;;;;4.90;3.30;;;;;;;14.51;56.24;101176.41;5050028;28;20033;-76
2022/05/31 09:39:41;;;;;;;5.68;3.17;;;;;;;14.49;56.95;101172.16;5046338;28;20052;-76
2022/05/31 09:42:19;;;;;;;5.32;3.40;;;;;;;14.56;56.86;101173.59;5045843;28;20025;-75
2022/05/31 09:44:50;;;;;;;5.00;3.50;;;;;;;14.66;57.25;101177.59;5048683;28;20037;-75
2022/05/31 09:47:15;;;;;;;;;;;;;;;14.74;57.32;101168.63;5051712;28;20067;-76
2022/05/31 09:49:44;;;;;;;5.15;3.28;;;;;;;14.79;55.61;101164.06;5050238;28;19959;-75
2022/05/31 09:52:15;;;;;;;5.45;3.25;;;;;;;14.86;55.84;101170.75;5050424;28;20035;-76
2022/05/31 09:58:08;;;;;;;4.57;3.20;;;;;;;14.97;56.16;101176.47;5043057;28;20098;-75
2022/05/31 10:00:36;;;;;;;4.22;2.70;;;;;;;15.01;54.36;101167.56;5049533;28;20116;-75
2022/05/31 10:03:08;;;;;;;5.93;3.22;;;;;;;15.04;54.77;101171.84;5045286;28;20916;-76
2022/05/31 10:05:33;;;;;;;4.78;2.85;;;;;;;15.07;53.95;101170.84;5046335;28;20033;-76
2022/05/31 10:07:58;;;;;;;4.63;2.75;;;;;;;15.11;54.08;101169.81;5046202;28;20025;-76
2022/05/31 10:10:27;;;;;;;4.35;3.28;;;;;;;15.13;52.73;101173.25;5046682;28;20025;-75
2022/05/31 10:13:01;;;;;;;8.30;4.45;;;;;;;15.19;54.45;101167.75;5046100;28;20113;-76
2022/05/31 10:15:38;;;;;;;4.25;3.10;;;;;;;15.25;55.87;101157.00;5046277;28;20051;-76
2022/05/31 10:18:07;;;;;;;4.80;3.15;;;;;;;15.25;53.83;101154.41;5044263;28;20025;-76
2022/05/31 10:20:33;;;;;;;4.00;2.92;;;;;;;15.27;55.21;101149.09;5044499;28;20033;-75
2022/05/31 10:23:02;;;;;;;5.35;3.08;;;;;;;15.31;55.10;101145.41;5045385;28;20438;-76
2022/05/31 10:25:39;;;;;;;4.10;2.97;;;;;;;15.37;53.82;101152.22;5043638;28;20037;-76
2022/05/31 10:28:29;;;;;;;4.55;3.35;;;;;;;15.41;55.18;101148.53;5044355;28;20038;-76
2022/05/31 10:31:14;;;;;;;6.90;3.65;;;;;;;15.44;53.31;101154.50;5045274;28;20072;-76
2022/05/31 10:33:40;;;;;;;4.50;3.22;;;;;;;15.48;53.13;101157.84;5043718;28;20025;-76
2022/05/31 10:36:16;;;;;;;5.00;3.15;;;;;;;15.51;52.25;101155.09;5041855;28;20041;-75
2022/05/31 10:38:44;;;;;;;4.40;3.15;;;;;;;15.52;52.81;101161.19;5044759;28;20412;-75
2022/05/31 10:41:19;;;;;;;5.90;3.38;;;;;;;15.53;52.63;101153.28;5046354;28;20476;-76
2022/05/31 10:43:47;;;;;;;4.38;3.00;;;;;;;15.60;53.89;101152.09;5048558;28;20458;-76
2022/05/31 10:46:28;;;;;;;5.85;2.97;;;;;;;15.69;53.17;101142.13;5050112;28;20021;-75
2022/05/31 10:48:56;;;;;;;;;;;;;;;15.78;54.18;101146.97;5050082;28;20411;-76
2022/05/31 10:51:32;;;;;;;5.82;3.40;;;;;;;15.78;50.62;101139.09;5046776;28;19913;-75
2022/05/31 10:54:19;;;;;;;5.43;3.50;;;;;;;15.82;49.38;101140.69;5052029;28;20049;-76
2022/05/31 10:56:56;;;;;;;4.35;3.38;;;;;;;15.86;48.51;101138.81;5048379;28;20025;-76
2022/05/31 11:00:00;;;;;;;5.20;3.60;;;;;;;15.96;51.56;101142.75;5048765;28;20200;-75
2022/05/31 11:02:46;;;;;;;5.15;3.30;;;;;;;16.07;52.56;101129.13;5047721;28;20100;-76
2022/05/31 11:05:16;;;;;;;5.57;3.38;;;;;;;16.18;51.31;101137.41;5049288;28;20059;-76
2022/05/31 11:14:11;;;;;;;5.40;3.80;;;;;;;16.27;50.04;101130.91;5045042;28;20064;-76
2022/05/31 11:17:04;;;;;;;10.75;5.50;;;;;;;16.33;51.36;101140.25;5052518;28;20065;-76
2022/05/31 11:19:42;;;;;;;8.02;4.70;;;;;;;16.37;50.62;101134.78;5050068;28;20020;-76
2022/05/31 11:22:25;;;;;;;45.60;14.30;;;;;;;16.44;50.14;101143.25;5053613;28;20084;-76
2022/05/31 11:25:10;;;;;;;16.30;6.53;;;;;;;16.47;48.52;101143.09;5048947;28;20118;-76
2022/05/31 11:27:44;;;;;;;13.70;5.80;;;;;;;16.49;49.22;101143.91;5049276;28;20032;-76
2022/05/31 11:30:18;;;;;;;10.40;5.07;;;;;;;16.51;50.01;101139.44;5046381;28;20107;-76
2022/05/31 11:32:53;;;;;;;48.17;16.30;;;;;;;16.51;49.95;101144.69;5047204;28;20542;-76
2022/05/31 11:36:00;;;;;;;17.05;7.88;;;;;;;16.54;51.01;101149.78;5047896;28;20394;-76
2022/05/31 11:38:39;;;;;;;11.07;5.75;;;;;;;16.48;50.08;101142.19;5037854;28;21253;-76
2022/05/31 11:41:47;;;;;;;9.82;5.50;;;;;;;16.45;49.91;101146.75;5051974;28;20028;-76
2022/05/31 11:44:42;;;;;;;7.03;4.50;;;;;;;16.38;49.35;101147.00;5020122;28;20396;-76
2022/05/31 11:47:46;;;;;;;6.93;4.40;;;;;;;16.38;49.18;101154.03;5042846;28;20106;-76
2022/05/31 11:50:56;;;;;;;7.78;4.53;;;;;;;16.35;50.02;101151.56;5046893;28;20028;-76
2022/05/31 11:53:59;;;;;;;6.53;4.22;;;;;;;16.28;49.55;101155.34;4982139;28;20034;-76
2022/05/31 11:56:42;;;;;;;8.15;4.50;;;;;;;16.22;48.41;101152.09;4977850;28;20093;-76
2022/05/31 11:59:15;;;;;;;7.85;4.68;;;;;;;16.19;46.79;101154.88;5039396;28;20511;-75
2022/05/31 12:01:48;;;;;;;8.07;4.75;;;;;;;16.17;49.20;101161.09;5044524;28;20115;-76
2022/05/31 12:04:21;;;;;;;7.93;3.90;;;;;;;16.06;48.69;101159.78;5040445;28;20056;-76
2022/05/31 12:07:04;;;;;;;7.20;3.72;;;;;;;15.86;50.22;101167.66;5040940;28;20104;-76